Time;durP1;ratioP1;P1;durP2;ratioP2;P2;SDS_P1;SDS_P2;PMS_P1;PMS_P2;Temp;Humidity;BMP_temperature;BMP_pressure;BME280_temperature;BME280_humidity;BME280_pressure;Samples;Min_cycle;Max_cycle;Signal;HPM_P1;HPM_P2
2021/12/27 00:00:49;;;;;;;16.67;11.37;;;-0.90;99.90;;;;;;5090151;28;20419;-78
2021/12/27 00:03:14;;;;;;;23.90;12.67;;;-0.80;99.90;;;;;;5091314;28;20039;-78
2021/12/27 00:05:40;;;;;;;20.87;12.00;;;-0.90;99.90;;;;;;5074103;28;20039;-78
2021/12/27 00:08:06;;;;;;;17.60;12.00;;;-0.90;99.90;;;;;;5092134;28;20040;-79
2021/12/27 00:10:31;;;;;;;19.43;13.27;;;-0.90;99.90;;;;;;5090731;28;20055;-78
2021/12/27 00:12:58;;;;;;;22.00;12.43;;;-1.00;99.90;;;;;;5091148;28;20063;-78
2021/12/27 00:15:25;;;;;;;20.60;12.33;;;-1.00;99.90;;;;;;5075010;28;20074;-78
2021/12/27 00:17:51;;;;;;;20.77;11.93;;;-1.10;99.90;;;;;;5090881;28;20063;-79
2021/12/27 00:20:18;;;;;;;19.23;12.10;;;-1.20;99.90;;;;;;5090939;28;20032;-78
2021/12/27 00:22:46;;;;;;;19.77;13.43;;;-1.20;99.90;;;;;;5091733;28;20036;-79
2021/12/27 00:25:13;;;;;;;18.60;11.93;;;-1.30;99.90;;;;;;5092133;28;20410;-79
2021/12/27 00:27:39;;;;;;;20.03;12.53;;;-1.30;99.90;;;;;;5095507;28;20032;-78
2021/12/27 00:30:07;;;;;;;19.20;13.80;;;-1.20;99.90;;;;;;5078961;28;20105;-79
2021/12/27 00:32:36;;;;;;;19.03;13.20;;;-1.20;99.90;;;;;;5095340;28;20297;-78
2021/12/27 00:35:05;;;;;;;19.80;12.93;;;-1.20;99.90;;;;;;5095524;28;20123;-79
2021/12/27 00:37:30;;;;;;;23.43;12.57;;;-1.10;99.90;;;;;;5094810;28;20114;-78
2021/12/27 00:39:56;;;;;;;20.70;13.50;;;-1.10;99.90;;;;;;5095083;28;20067;-79
2021/12/27 00:42:21;;;;;;;18.17;13.23;;;-1.10;99.90;;;;;;5094666;28;20478;-79
2021/12/27 00:44:47;;;;;;;19.90;12.00;;;-1.10;99.90;;;;;;5095897;28;20040;-78
2021/12/27 00:47:12;;;;;;;20.63;13.07;;;-1.10;99.90;;;;;;5078848;28;20455;-80
2021/12/27 00:49:38;;;;;;;17.53;12.20;;;-1.00;99.90;;;;;;5106480;28;20241;-79
2021/12/27 00:52:04;;;;;;;21.67;13.10;;;-1.00;99.90;;;;;;5119938;28;20046;-79
2021/12/27 00:54:30;;;;;;;20.10;14.80;;;-1.00;99.90;;;;;;5120076;28;20051;-79
2021/12/27 00:56:55;;;;;;;21.87;12.47;;;-1.00;99.90;;;;;;5119525;28;20020;-79
2021/12/27 00:59:21;;;;;;;19.07;11.87;;;-0.90;99.90;;;;;;5119545;28;20103;-78
2021/12/27 01:01:46;;;;;;;19.17;13.00;;;-0.90;99.90;;;;;;5102515;28;20058;-80
2021/12/27 01:04:12;;;;;;;19.23;12.73;;;-0.90;99.90;;;;;;5119736;28;20046;-79
2021/12/27 01:06:38;;;;;;;18.43;12.10;;;-0.90;99.90;;;;;;5110583;28;20131;-79
2021/12/27 01:09:04;;;;;;;20.77;12.87;;;-0.90;99.90;;;;;;5081814;28;20036;-79
2021/12/27 01:14:27;;;;;;;20.73;13.57;;;-0.90;99.90;;;;;;5098014;28;20124;-79
2021/12/27 01:16:52;;;;;;;19.77;13.30;;;-0.80;99.90;;;;;;5097144;28;20044;-79
2021/12/27 01:19:18;;;;;;;19.23;12.40;;;-0.90;99.90;;;;;;5096309;28;20097;-78
2021/12/27 01:21:43;;;;;;;16.37;11.43;;;-0.90;99.90;;;;;;5078750;28;20036;-78
2021/12/27 01:24:09;;;;;;;19.60;12.90;;;-0.80;99.90;;;;;;5078750;28;20110;-78
2021/12/27 01:26:35;;;;;;;20.93;12.07;;;-0.80;99.90;;;;;;5095265;28;20040;-78
2021/12/27 01:29:01;;;;;;;20.83;12.03;;;-0.80;99.90;;;;;;5095605;28;20490;-78
2021/12/27 01:31:28;;;;;;;20.07;13.43;;;-0.80;99.90;;;;;;5079289;28;20097;-78
2021/12/27 01:33:54;;;;;;;18.87;12.67;;;-0.80;99.90;;;;;;5099033;28;20454;-78
2021/12/27 01:36:20;;;;;;;17.90;12.83;;;-0.80;99.90;;;;;;5098340;28;20063;-78
2021/12/27 01:38:47;;;;;;;19.20;13.17;;;-0.80;99.90;;;;;;5099884;28;20050;-78
2021/12/27 01:41:15;;;;;;;23.33;13.07;;;-0.80;99.90;;;;;;5099612;28;20044;-78
2021/12/27 01:43:42;;;;;;;19.43;12.93;;;-0.80;99.90;;;;;;5097077;28;20031;-78
2021/12/27 01:46:17;;;;;;;21.90;14.03;;;-0.80;99.90;;;;;;5094800;28;20162;-78
2021/12/27 01:48:48;;;;;;;23.90;14.93;;;-0.80;99.90;;;;;;5095447;28;20486;-78
2021/12/27 01:51:16;;;;;;;20.23;15.03;;;-0.70;99.90;;;;;;5094795;28;20436;-78
2021/12/27 01:53:44;;;;;;;22.13;13.90;;;-0.80;99.90;;;;;;5078622;28;20119;-78
2021/12/27 01:56:12;;;;;;;21.07;13.30;;;-0.70;99.90;;;;;;5094493;28;20105;-78
2021/12/27 01:58:39;;;;;;;19.27;11.93;;;-0.70;99.90;;;;;;5095004;28;20092;-78
2021/12/27 02:01:08;;;;;;;22.70;14.87;;;-0.70;99.90;;;;;;5099395;28;20137;-79
2021/12/27 02:03:34;;;;;;;18.80;12.83;;;-0.80;99.90;;;;;;5100528;28;20032;-79
2021/12/27 02:06:01;;;;;;;20.70;13.97;;;-0.70;99.90;;;;;;5099007;28;20222;-80
2021/12/27 02:08:27;;;;;;;23.43;14.73;;;-0.70;99.90;;;;;;5100308;28;20386;-79
2021/12/27 02:10:53;;;;;;;24.10;15.90;;;-0.70;99.90;;;;;;5099254;28;20047;-79
2021/12/27 02:13:19;;;;;;;24.00;13.47;;;-0.70;99.90;;;;;;5100428;28;20562;-79
2021/12/27 02:15:45;;;;;;;25.27;13.83;;;-0.70;99.90;;;;;;5098700;28;20040;-79
2021/12/27 02:18:11;;;;;;;23.20;14.73;;;-0.70;99.90;;;;;;5082587;28;20051;-79
2021/12/27 02:20:39;;;;;;;19.70;12.83;;;-0.70;99.90;;;;;;5097971;28;20039;-79
2021/12/27 02:23:12;;;;;;;22.90;14.50;;;-0.60;99.90;;;;;;5081908;28;20044;-79
2021/12/27 02:25:38;;;;;;;25.83;14.63;;;-0.70;99.90;;;;;;5097743;28;20040;-78
2021/12/27 02:28:07;;;;;;;20.70;14.67;;;-0.70;99.90;;;;;;5098294;28;20032;-79
2021/12/27 02:30:33;;;;;;;23.00;14.70;;;-0.60;99.90;;;;;;5098923;28;20074;-79
2021/12/27 02:33:04;;;;;;;22.47;13.73;;;-0.60;99.90;;;;;;5097837;28;20047;-78
2021/12/27 02:35:33;;;;;;;20.87;14.27;;;-0.60;99.90;;;;;;5098233;28;20037;-79
2021/12/27 02:38:01;;;;;;;21.20;14.80;;;-0.50;99.90;;;;;;5097433;28;20066;-79
2021/12/27 02:40:31;;;;;;;25.53;14.57;;;-0.50;99.90;;;;;;5081475;28;20036;-79
2021/12/27 02:42:59;;;;;;;20.20;14.40;;;-0.50;99.90;;;;;;5080162;28;20040;-79
2021/12/27 02:45:27;;;;;;;25.93;14.53;;;-0.50;99.90;;;;;;5098498;28;20130;-79
2021/12/27 02:47:53;;;;;;;21.77;13.30;;;-0.50;99.90;;;;;;5096050;28;20047;-78
2021/12/27 02:50:19;;;;;;;23.13;14.83;;;-0.50;99.90;;;;;;5097376;28;20063;-79
2021/12/27 02:52:45;;;;;;;23.07;15.23;;;-0.50;99.90;;;;;;5096501;28;20036;-79
2021/12/27 02:55:15;;;;;;;22.13;15.23;;;-0.50;99.90;;;;;;5081537;28;20093;-79
2021/12/27 02:57:45;;;;;;;27.33;16.00;;;-0.50;99.90;;;;;;5079427;28;20035;-79
2021/12/27 03:00:21;;;;;;;23.10;15.57;;;-0.40;99.90;;;;;;5097433;28;20040;-79
2021/12/27 03:02:48;;;;;;;22.17;14.23;;;-0.40;99.90;;;;;;5079815;28;20455;-79
2021/12/27 03:05:16;;;;;;;21.13;14.50;;;-0.40;99.90;;;;;;5096178;28;20359;-79
2021/12/27 03:07:43;;;;;;;25.17;16.60;;;-0.40;99.90;;;;;;5097092;28;20486;-79
2021/12/27 03:10:11;;;;;;;22.67;15.63;;;-0.40;99.90;;;;;;5095915;28;20032;-79
2021/12/27 03:12:38;;;;;;;24.43;15.50;;;-0.40;99.90;;;;;;5079608;28;20051;-79
2021/12/27 03:15:09;;;;;;;22.90;14.23;;;-0.40;99.90;;;;;;5095389;28;20044;-79
2021/12/27 03:17:36;;;;;;;24.23;15.40;;;-0.40;99.90;;;;;;5096559;28;20440;-79
2021/12/27 03:20:04;;;;;;;22.47;16.10;;;-0.40;99.90;;;;;;5094306;28;20043;-79
2021/12/27 03:22:30;;;;;;;21.10;15.40;;;-0.40;99.90;;;;;;5096578;28;20036;-79
2021/12/27 03:24:55;;;;;;;24.10;15.47;;;-0.40;99.90;;;;;;5095386;28;20075;-79
2021/12/27 03:27:21;;;;;;;22.60;14.87;;;-0.40;99.90;;;;;;5096376;28;20103;-79
2021/12/27 03:29:46;;;;;;;23.03;14.83;;;-0.30;99.90;;;;;;5094848;28;20075;-79
2021/12/27 03:32:13;;;;;;;22.73;14.23;;;-0.30;99.90;;;;;;5096201;28;20123;-79
2021/12/27 03:34:42;;;;;;;23.93;15.60;;;-0.30;99.90;;;;;;5078279;28;20047;-79
2021/12/27 03:37:09;;;;;;;21.13;13.53;;;-0.30;99.90;;;;;;5095513;28;20495;-79
2021/12/27 03:39:34;;;;;;;25.03;16.20;;;-0.30;99.90;;;;;;5094381;28;20583;-79
2021/12/27 03:42:00;;;;;;;21.87;15.00;;;-0.30;99.90;;;;;;5096147;28;20261;-79
2021/12/27 03:44:26;;;;;;;21.87;15.10;;;-0.30;99.90;;;;;;5095037;28;20043;-79
2021/12/27 03:46:51;;;;;;;22.93;15.23;;;-0.30;99.90;;;;;;5094663;28;20051;-79
2021/12/27 03:49:17;;;;;;;20.97;14.43;;;-0.30;99.90;;;;;;5095490;28;20036;-79
2021/12/27 03:51:43;;;;;;;23.30;15.73;;;-0.30;99.90;;;;;;5094436;28;20472;-79
2021/12/27 03:54:10;;;;;;;26.17;16.70;;;-0.30;99.90;;;;;;5095288;28;20082;-79
2021/12/27 03:56:35;;;;;;;22.27;14.67;;;-0.20;99.90;;;;;;5077240;28;20119;-79
2021/12/27 03:59:20;;;;;;;21.70;14.37;;;-0.20;99.90;;;;;;5094948;28;20063;-79
2021/12/27 04:01:46;;;;;;;22.77;15.00;;;-0.20;99.90;;;;;;5077516;28;20071;-79
2021/12/27 04:04:12;;;;;;;25.03;14.77;;;-0.20;99.90;;;;;;5094430;28;20482;-79
2021/12/27 04:06:37;;;;;;;26.50;16.87;;;-0.20;99.90;;;;;;5077333;28;20047;-79
2021/12/27 04:09:03;;;;;;;22.60;15.23;;;-0.20;99.90;;;;;;5094907;28;20061;-78
2021/12/27 04:11:29;;;;;;;21.90;14.63;;;-0.20;99.90;;;;;;5093279;28;20390;-79
2021/12/27 04:13:55;;;;;;;21.77;14.20;;;-0.10;99.90;;;;;;5094829;28;20035;-79
2021/12/27 04:16:21;;;;;;;21.80;14.67;;;-0.10;99.90;;;;;;5092566;28;20093;-79
2021/12/27 04:18:47;;;;;;;23.00;14.57;;;-0.10;99.90;;;;;;5074164;28;20039;-79
2021/12/27 04:21:13;;;;;;;23.17;14.77;;;-0.10;99.90;;;;;;5090853;28;20089;-79
2021/12/27 04:23:39;;;;;;;23.90;15.60;;;-0.10;99.90;;;;;;5073762;28;20032;-79
2021/12/27 04:26:05;;;;;;;23.70;15.83;;;-0.10;99.90;;;;;;5090162;28;20105;-79
2021/12/27 04:28:31;;;;;;;20.97;14.63;;;-0.10;99.90;;;;;;5090796;28;20214;-79
2021/12/27 04:30:56;;;;;;;23.37;15.57;;;-0.10;99.90;;;;;;5090696;28;20040;-79
2021/12/27 04:33:22;;;;;;;26.07;15.73;;;-0.10;99.90;;;;;;5090783;28;20414;-79
2021/12/27 04:35:48;;;;;;;23.23;15.23;;;-0.10;99.90;;;;;;5091071;28;20040;-79
2021/12/27 04:38:14;;;;;;;23.33;15.17;;;-0.10;99.90;;;;;;5090812;28;20410;-79
2021/12/27 04:40:43;;;;;;;28.33;17.87;;;0.00;99.90;;;;;;5073438;28;20531;-79
2021/12/27 04:43:14;;;;;;;25.57;15.17;;;-0.10;99.90;;;;;;5090564;28;20044;-79
2021/12/27 04:45:42;;;;;;;24.70;15.97;;;0.00;99.90;;;;;;5073607;28;20467;-79
2021/12/27 04:48:09;;;;;;;21.20;15.53;;;0.00;99.90;;;;;;5090694;28;20055;-79
2021/12/27 04:50:36;;;;;;;26.43;16.67;;;0.00;99.90;;;;;;5090359;28;20048;-79
2021/12/27 04:53:01;;;;;;;24.93;16.37;;;0.00;99.90;;;;;;5090502;28;20063;-79
2021/12/27 04:55:28;;;;;;;29.80;16.97;;;0.00;99.90;;;;;;5090239;28;20032;-79
2021/12/27 04:57:54;;;;;;;22.00;15.67;;;0.00;99.90;;;;;;5089868;28;20051;-79
2021/12/27 05:00:20;;;;;;;25.67;16.27;;;0.00;99.90;;;;;;5089985;28;20126;-79
2021/12/27 05:02:46;;;;;;;26.60;17.23;;;0.00;99.90;;;;;;5073342;28;20032;-79
2021/12/27 05:05:11;;;;;;;22.00;15.67;;;0.00;99.90;;;;;;5090643;28;20101;-79
2021/12/27 05:07:37;;;;;;;27.10;17.17;;;0.00;99.90;;;;;;5073264;28;20044;-79
2021/12/27 05:10:04;;;;;;;27.37;16.37;;;0.10;99.90;;;;;;5089668;28;20028;-79
2021/12/27 05:12:30;;;;;;;25.53;16.40;;;0.00;99.90;;;;;;5092806;28;20590;-79
2021/12/27 05:14:56;;;;;;;27.63;15.83;;;0.10;99.90;;;;;;5093977;28;20123;-79
2021/12/27 05:17:21;;;;;;;24.90;16.63;;;0.10;99.90;;;;;;5093618;28;20491;-79
2021/12/27 05:19:47;;;;;;;27.93;17.43;;;0.10;99.90;;;;;;5076843;28;20047;-79
2021/12/27 05:22:13;;;;;;;23.97;15.23;;;0.10;99.90;;;;;;5093649;28;20112;-79
2021/12/27 05:24:39;;;;;;;25.53;16.30;;;0.10;99.90;;;;;;5093841;28;20395;-79
2021/12/27 05:27:05;;;;;;;25.40;17.07;;;0.10;99.90;;;;;;5093585;28;20044;-79
2021/12/27 05:29:31;;;;;;;25.83;15.73;;;0.10;99.90;;;;;;5093452;28;20492;-79
2021/12/27 05:32:01;;;;;;;25.20;16.83;;;0.10;99.90;;;;;;5093460;28;20036;-79
2021/12/27 05:34:28;;;;;;;26.00;16.77;;;0.10;99.90;;;;;;5093643;28;20044;-79
2021/12/27 05:36:54;;;;;;;22.83;15.10;;;0.10;99.90;;;;;;5093970;28;20071;-79
2021/12/27 05:39:20;;;;;;;23.33;16.00;;;0.10;99.90;;;;;;5093096;28;20524;-79
2021/12/27 05:41:46;;;;;;;24.47;16.53;;;0.10;99.90;;;;;;5076366;28;20040;-79
2021/12/27 05:44:12;;;;;;;31.13;17.47;;;0.10;99.90;;;;;;5093011;28;20085;-79
2021/12/27 05:46:38;;;;;;;25.83;17.03;;;0.20;99.90;;;;;;5092971;28;20037;-79
2021/12/27 05:49:04;;;;;;;25.40;17.80;;;0.20;99.90;;;;;;5076417;28;20119;-79
2021/12/27 05:51:29;;;;;;;25.33;16.73;;;0.10;99.90;;;;;;5093807;28;20060;-79
2021/12/27 05:53:55;;;;;;;25.27;16.70;;;0.10;99.90;;;;;;5093229;28;20117;-79
2021/12/27 05:56:20;;;;;;;26.13;16.63;;;0.10;99.90;;;;;;5092247;28;20040;-79
2021/12/27 05:58:46;;;;;;;25.50;16.33;;;0.10;99.90;;;;;;5075818;28;20107;-79
2021/12/27 06:01:12;;;;;;;25.10;16.57;;;0.10;99.90;;;;;;5093387;28;20086;-79
2021/12/27 06:03:37;;;;;;;27.70;19.03;;;0.10;99.90;;;;;;5093051;28;20044;-79
2021/12/27 06:06:03;;;;;;;26.90;17.40;;;0.20;99.90;;;;;;5092756;28;20040;-80
2021/12/27 06:08:29;;;;;;;27.47;17.03;;;0.20;99.90;;;;;;5092721;28;20039;-79
2021/12/27 06:10:54;;;;;;;26.27;17.07;;;0.20;99.90;;;;;;5093470;28;20506;-79
2021/12/27 06:13:20;;;;;;;27.17;18.13;;;0.10;99.90;;;;;;5076315;28;20105;-79
2021/12/27 06:15:45;;;;;;;25.50;17.20;;;0.20;99.90;;;;;;5101325;28;20028;-80
2021/12/27 06:18:12;;;;;;;25.23;17.33;;;0.10;99.90;;;;;;5118246;28;20040;-80
2021/12/27 06:20:37;;;;;;;26.97;18.07;;;0.20;99.90;;;;;;5118464;28;20085;-80
2021/12/27 06:23:03;;;;;;;30.03;19.00;;;0.20;99.90;;;;;;5101651;28;20056;-80
2021/12/27 06:25:29;;;;;;;28.80;18.33;;;0.20;99.90;;;;;;5118125;28;20166;-80
2021/12/27 06:27:55;;;;;;;29.37;18.97;;;0.20;99.90;;;;;;5100965;28;20035;-81
2021/12/27 06:30:21;;;;;;;29.63;19.20;;;0.20;99.90;;;;;;5118189;28;20044;-81
2021/12/27 06:32:47;;;;;;;31.10;19.60;;;0.10;99.90;;;;;;5113010;28;20123;-80
2021/12/27 06:35:14;;;;;;;28.33;19.30;;;0.20;99.90;;;;;;5102663;28;20071;-80
2021/12/27 06:37:42;;;;;;;32.43;20.47;;;0.20;99.90;;;;;;5100933;28;20076;-81
2021/12/27 06:40:09;;;;;;;27.47;18.50;;;0.10;99.90;;;;;;5101108;28;20040;-81
2021/12/27 06:42:35;;;;;;;31.27;19.40;;;0.20;99.90;;;;;;5099803;28;20118;-81
2021/12/27 06:45:00;;;;;;;31.20;19.03;;;0.20;99.90;;;;;;5099132;28;20189;-81
2021/12/27 06:47:26;;;;;;;29.50;18.93;;;0.20;99.90;;;;;;5098354;28;20059;-81
2021/12/27 06:49:52;;;;;;;31.20;19.70;;;0.20;99.90;;;;;;5098850;28;20101;-81
2021/12/27 06:52:18;;;;;;;26.50;18.13;;;0.20;99.90;;;;;;5098432;28;20050;-81
2021/12/27 06:54:44;;;;;;;33.73;19.77;;;0.20;99.90;;;;;;5105980;28;20538;-81
2021/12/27 06:57:09;;;;;;;28.97;20.57;;;0.20;99.90;;;;;;5090038;28;20046;-81
2021/12/27 06:59:35;;;;;;;34.80;21.87;;;0.20;99.90;;;;;;5103834;28;20032;-82
2021/12/27 07:02:01;;;;;;;29.83;20.33;;;0.20;99.90;;;;;;5104632;28;20040;-82
2021/12/27 07:04:26;;;;;;;27.97;19.53;;;0.20;99.90;;;;;;5102498;28;20509;-82
2021/12/27 07:06:52;;;;;;;25.70;19.67;;;0.20;99.90;;;;;;5103962;28;20039;-81
2021/12/27 07:09:18;;;;;;;29.60;21.33;;;0.20;99.90;;;;;;5086697;28;20040;-81
2021/12/27 07:11:44;;;;;;;36.50;20.53;;;0.20;99.90;;;;;;5103688;28;20047;-81
2021/12/27 07:14:09;;;;;;;27.53;18.37;;;0.20;99.90;;;;;;5085857;28;20036;-81
2021/12/27 07:16:35;;;;;;;31.60;20.43;;;0.20;99.90;;;;;;5104220;28;20083;-81
2021/12/27 07:19:01;;;;;;;33.47;21.43;;;0.20;99.90;;;;;;5104731;28;20040;-80
2021/12/27 07:21:26;;;;;;;28.20;18.97;;;0.20;99.90;;;;;;5104293;28;20036;-80
2021/12/27 07:23:52;;;;;;;31.50;20.13;;;0.20;99.90;;;;;;5104277;28;20086;-80
2021/12/27 07:26:17;;;;;;;30.83;20.20;;;0.20;99.90;;;;;;5103842;28;20110;-80
2021/12/27 07:28:43;;;;;;;30.33;19.37;;;0.20;99.90;;;;;;5086431;28;20032;-79
2021/12/27 07:31:10;;;;;;;31.27;20.30;;;0.20;99.90;;;;;;5087237;28;20452;-80
2021/12/27 07:33:36;;;;;;;27.47;18.87;;;0.20;99.90;;;;;;5085442;28;20084;-79
2021/12/27 07:36:05;;;;;;;35.97;21.93;;;0.30;99.90;;;;;;5104186;28;20100;-81
2021/12/27 07:38:31;;;;;;;34.23;19.97;;;0.30;99.90;;;;;;5102197;28;20069;-80
2021/12/27 07:40:57;;;;;;;30.13;19.83;;;0.30;99.90;;;;;;5085259;28;20035;-81
2021/12/27 07:43:23;;;;;;;34.50;23.23;;;0.30;99.90;;;;;;5085148;28;20592;-81
2021/12/27 07:45:48;;;;;;;35.87;22.27;;;0.30;99.90;;;;;;5101408;28;20032;-81
2021/12/27 07:48:14;;;;;;;35.00;22.47;;;0.30;99.90;;;;;;5100431;28;20036;-81
2021/12/27 07:50:39;;;;;;;37.47;23.53;;;0.30;99.90;;;;;;5101431;28;20505;-81
2021/12/27 07:53:05;;;;;;;36.97;22.07;;;0.30;99.90;;;;;;5084044;28;20406;-82
2021/12/27 07:55:32;;;;;;;39.70;25.23;;;0.40;99.90;;;;;;5085162;28;20028;-82
2021/12/27 07:57:58;;;;;;;40.40;23.93;;;0.40;99.90;;;;;;5100601;28;20040;-81
2021/12/27 08:00:25;;;;;;;36.27;22.37;;;0.40;99.90;;;;;;5084249;28;20036;-81
2021/12/27 08:02:51;;;;;;;38.97;24.47;;;0.40;99.90;;;;;;5100783;28;20047;-82
2021/12/27 08:05:18;;;;;;;37.47;23.23;;;0.50;99.90;;;;;;5100218;28;20501;-82
2021/12/27 08:07:43;;;;;;;41.40;23.17;;;0.50;99.90;;;;;;5100402;28;20039;-82
2021/12/27 08:10:11;;;;;;;39.93;25.00;;;0.50;99.90;;;;;;5082497;28;20036;-82
2021/12/27 08:12:38;;;;;;;33.77;22.57;;;0.50;99.90;;;;;;5100453;28;20046;-82
2021/12/27 08:15:05;;;;;;;38.17;24.40;;;0.50;99.90;;;;;;5081746;28;20076;-82
2021/12/27 08:17:31;;;;;;;38.20;21.10;;;0.50;99.90;;;;;;5099739;28;20039;-81
2021/12/27 08:19:56;;;;;;;37.93;22.17;;;0.50;99.90;;;;;;5081908;28;20039;-82
2021/12/27 08:22:22;;;;;;;38.30;22.83;;;0.60;99.90;;;;;;5099035;28;20036;-82
2021/12/27 08:24:49;;;;;;;36.97;21.90;;;0.60;99.90;;;;;;5098137;28;20036;-82
2021/12/27 08:27:15;;;;;;;36.13;21.70;;;0.60;99.90;;;;;;5081676;28;20066;-82
2021/12/27 08:29:40;;;;;;;36.90;22.10;;;0.60;99.90;;;;;;5097887;28;20044;-82
2021/12/27 08:32:06;;;;;;;37.50;22.97;;;0.60;99.90;;;;;;5098229;28;20028;-82
2021/12/27 08:34:32;;;;;;;40.03;23.93;;;0.60;99.90;;;;;;5096736;28;20058;-82
2021/12/27 08:36:58;;;;;;;38.90;25.13;;;0.60;99.90;;;;;;5081094;28;20405;-82
2021/12/27 08:39:24;;;;;;;35.10;22.90;;;0.70;99.90;;;;;;5097178;28;20039;-82
2021/12/27 08:41:50;;;;;;;35.33;23.40;;;0.70;99.90;;;;;;5097971;28;20054;-83
2021/12/27 08:44:15;;;;;;;34.53;20.53;;;0.70;99.90;;;;;;5098033;28;20703;-82
2021/12/27 08:46:42;;;;;;;41.70;22.70;;;0.70;99.90;;;;;;5097368;28;20086;-82
2021/12/27 08:49:09;;;;;;;38.03;23.70;;;0.70;99.90;;;;;;5099634;28;20655;-82
2021/12/27 08:51:35;;;;;;;37.23;22.77;;;0.70;99.90;;;;;;5097897;28;20036;-82
2021/12/27 08:54:02;;;;;;;42.63;23.77;;;0.70;99.90;;;;;;5100170;28;20122;-82
2021/12/27 08:56:27;;;;;;;44.10;23.47;;;0.80;99.90;;;;;;5098407;28;20040;-83
2021/12/27 08:58:54;;;;;;;36.50;22.43;;;0.80;99.90;;;;;;5099210;28;20040;-82
2021/12/27 09:01:20;;;;;;;45.87;23.53;;;0.80;99.90;;;;;;5098235;28;20044;-83
2021/12/27 09:03:46;;;;;;;42.50;23.97;;;0.80;99.90;;;;;;5081778;28;20051;-83
2021/12/27 09:06:11;;;;;;;43.33;26.10;;;0.80;99.90;;;;;;5080297;28;20040;-83
2021/12/27 09:08:37;;;;;;;46.73;24.73;;;0.80;99.90;;;;;;5097049;28;20124;-83
2021/12/27 09:11:02;;;;;;;41.97;24.90;;;0.90;99.90;;;;;;5098109;28;20043;-83
2021/12/27 09:13:30;;;;;;;45.80;24.97;;;0.90;99.90;;;;;;5080537;28;20043;-83
2021/12/27 09:15:59;;;;;;;46.63;25.20;;;0.90;99.90;;;;;;5097423;28;20083;-83
2021/12/27 09:18:24;;;;;;;43.50;26.87;;;1.00;99.90;;;;;;5098677;28;20036;-82
2021/12/27 09:20:50;;;;;;;57.20;30.20;;;1.00;99.90;;;;;;5097473;28;20039;-83
2021/12/27 09:23:16;;;;;;;58.83;29.83;;;1.00;99.90;;;;;;5081459;28;20044;-82
2021/12/27 09:25:43;;;;;;;68.67;33.17;;;1.00;99.90;;;;;;5102494;28;20052;-83
2021/12/27 09:28:09;;;;;;;58.37;32.47;;;1.00;99.90;;;;;;5106009;28;20036;-82
2021/12/27 09:30:36;;;;;;;51.40;29.70;;;1.00;99.90;;;;;;5086182;28;20482;-82
2021/12/27 09:33:02;;;;;;;53.37;26.33;;;1.00;99.90;;;;;;5083801;28;20047;-83
2021/12/27 09:35:28;;;;;;;52.57;28.10;;;1.10;99.90;;;;;;5101110;28;20067;-81
2021/12/27 09:37:53;;;;;;;46.53;25.30;;;1.10;99.90;;;;;;5100640;28;20036;-82
2021/12/27 09:40:19;;;;;;;48.70;25.70;;;1.10;99.90;;;;;;5099651;28;20116;-82
2021/12/27 09:42:45;;;;;;;49.23;28.30;;;1.10;99.90;;;;;;5082991;28;20188;-81
2021/12/27 09:45:10;;;;;;;51.80;27.17;;;1.10;99.90;;;;;;5083409;28;20089;-82
2021/12/27 09:47:36;;;;;;;51.53;27.70;;;1.20;99.90;;;;;;5098363;28;20036;-82
2021/12/27 09:50:06;;;;;;;46.37;26.70;;;1.20;99.90;;;;;;5081601;28;20082;-82
2021/12/27 09:52:32;;;;;;;55.43;28.50;;;1.30;99.90;;;;;;5096790;28;20047;-82
2021/12/27 09:54:59;;;;;;;48.47;26.43;;;1.30;99.90;;;;;;5096752;28;20036;-82
2021/12/27 09:57:25;;;;;;;52.80;28.90;;;1.40;99.90;;;;;;5095368;28;20103;-82
2021/12/27 09:59:50;;;;;;;52.20;29.50;;;1.40;99.90;;;;;;5096071;28;20145;-82
2021/12/27 10:02:16;;;;;;;59.37;29.23;;;1.40;99.90;;;;;;5095021;28;20036;-82
2021/12/27 10:04:44;;;;;;;55.33;30.57;;;1.40;99.90;;;;;;5094955;28;20043;-81
2021/12/27 10:07:17;;;;;;;55.30;28.70;;;1.40;99.90;;;;;;5077221;28;20048;-82
2021/12/27 10:09:43;;;;;;;61.33;29.77;;;1.50;99.90;;;;;;5077595;28;20036;-83
2021/12/27 10:12:09;;;;;;;63.17;30.40;;;1.50;99.90;;;;;;5093884;28;20043;-82
2021/12/27 10:14:35;;;;;;;60.60;30.80;;;1.50;99.90;;;;;;5094380;28;20043;-83
2021/12/27 10:17:11;;;;;;;59.17;32.07;;;1.50;99.90;;;;;;5099761;28;20052;-82
2021/12/27 10:19:38;;;;;;;66.63;32.97;;;1.60;99.90;;;;;;5100755;28;20047;-83
2021/12/27 10:22:09;;;;;;;52.60;31.20;;;1.60;99.90;;;;;;5084306;28;20383;-82
2021/12/27 10:24:35;;;;;;;57.73;29.87;;;1.70;99.90;;;;;;5082901;28;20119;-82
2021/12/27 10:27:02;;;;;;;58.57;31.03;;;1.70;99.90;;;;;;5101077;28;20072;-83
2021/12/27 10:29:30;;;;;;;71.73;34.10;;;1.70;99.90;;;;;;5098068;28;20348;-83
2021/12/27 10:31:58;;;;;;;66.13;38.03;;;1.70;99.90;;;;;;5098419;28;20036;-83
2021/12/27 10:34:29;;;;;;;74.70;37.47;;;1.70;99.90;;;;;;5097216;28;20036;-82
2021/12/27 10:37:04;;;;;;;64.80;35.00;;;1.80;99.90;;;;;;5080948;28;20044;-83
2021/12/27 10:39:51;;;;;;;62.88;34.40;;;1.80;99.90;;;;;;5097786;28;20040;-83
2021/12/27 10:42:18;;;;;;;66.63;34.53;;;1.80;99.90;;;;;;5079738;28;20032;-83
2021/12/27 10:44:44;;;;;;;74.63;34.17;;;1.80;99.90;;;;;;5080313;28;20128;-82
2021/12/27 10:47:32;;;;;;;70.70;36.13;;;1.80;99.90;;;;;;5078169;28;20135;-82
2021/12/27 10:50:16;;;;;;;69.00;34.83;;;1.70;99.90;;;;;;5088369;28;20034;-83
2021/12/27 10:53:07;;;;;;;72.27;36.17;;;1.80;99.90;;;;;;5090472;28;20040;-82
2021/12/27 10:55:43;;;;;;;74.33;37.27;;;1.80;99.90;;;;;;5099755;28;20477;-82
2021/12/27 10:58:17;;;;;;;78.53;35.83;;;1.90;99.90;;;;;;5101585;28;20044;-82
2021/12/27 11:00:44;;;;;;;82.27;36.80;;;1.90;99.90;;;;;;5081098;28;20039;-82
2021/12/27 11:03:43;;;;;;;69.43;34.70;;;2.00;99.90;;;;;;5096749;28;20048;-82
2021/12/27 11:06:11;;;;;;;78.13;35.80;;;2.10;99.90;;;;;;5039558;28;20503;-82
2021/12/27 11:08:39;;;;;;;77.53;37.00;;;2.10;99.90;;;;;;5091100;28;20032;-83
2021/12/27 11:11:06;;;;;;;79.20;38.63;;;2.20;99.90;;;;;;5098865;28;20044;-82
2021/12/27 11:13:32;;;;;;;86.87;41.27;;;2.10;99.90;;;;;;5098906;28;20537;-82
2021/12/27 11:15:59;;;;;;;84.73;39.20;;;2.10;99.90;;;;;;5097846;28;20043;-82
2021/12/27 11:18:24;;;;;;;86.73;38.97;;;2.00;99.90;;;;;;5097964;28;20071;-81
2021/12/27 11:21:18;;;;;;;99.00;46.43;;;2.00;99.90;;;;;;5097325;28;20040;-82
2021/12/27 11:23:48;;;;;;;92.83;42.27;;;2.00;99.90;;;;;;5095645;28;20110;-82
2021/12/27 11:26:20;;;;;;;96.47;44.67;;;1.90;99.90;;;;;;5098913;28;20054;-79
2021/12/27 11:28:46;;;;;;;103.17;44.07;;;1.90;99.90;;;;;;5117239;28;20047;-82
2021/12/27 11:31:23;;;;;;;102.03;46.53;;;2.00;99.90;;;;;;5117076;28;20028;-82
2021/12/27 11:33:56;;;;;;;109.97;52.50;;;1.90;99.90;;;;;;5101218;28;20095;-83
2021/12/27 11:36:24;;;;;;;91.13;43.57;;;2.00;99.90;;;;;;5099820;28;20062;-82
2021/12/27 11:38:50;;;;;;;92.03;41.97;;;2.10;99.90;;;;;;5117541;28;20056;-83
2021/12/27 11:41:26;;;;;;;86.53;39.23;;;2.10;99.90;;;;;;5116928;28;20060;-83
2021/12/27 11:44:18;;;;;;;106.13;44.00;;;2.10;99.90;;;;;;5111446;28;20044;-82
2021/12/27 11:46:47;;;;;;;89.60;41.37;;;2.10;99.90;;;;;;5090345;28;20502;-82
2021/12/27 11:49:13;;;;;;;118.47;50.27;;;2.10;99.90;;;;;;5099972;28;20040;-82
2021/12/27 11:51:39;;;;;;;134.30;52.33;;;2.10;99.90;;;;;;5098988;28;20487;-82
2021/12/27 11:54:29;;;;;;;96.93;44.13;;;2.00;99.90;;;;;;5084190;28;20068;-83
2021/12/27 11:56:55;;;;;;;122.43;52.23;;;2.00;99.90;;;;;;5088587;28;20071;-83
2021/12/27 11:59:27;;;;;;;147.10;57.83;;;2.00;99.90;;;;;;5101560;28;20040;-83
2021/12/27 12:01:54;;;;;;;156.63;62.77;;;2.00;99.90;;;;;;5097031;28;20197;-80
2021/12/27 12:04:39;;;;;;;162.37;66.77;;;2.00;99.90;;;;;;5079781;28;20048;-80
2021/12/27 12:07:05;;;;;;;132.47;57.47;;;1.90;99.90;;;;;;5093926;28;20035;-80
2021/12/27 12:09:31;;;;;;;147.37;56.37;;;1.90;99.90;;;;;;5091762;28;20044;-81
2021/12/27 12:12:03;;;;;;;174.20;65.03;;;2.00;99.90;;;;;;5098988;28;20067;-82
2021/12/27 12:14:28;;;;;;;191.20;74.07;;;1.90;99.90;;;;;;5079259;28;20039;-82
2021/12/27 12:16:55;;;;;;;205.37;72.27;;;1.90;99.90;;;;;;5096480;28;20044;-81
2021/12/27 12:19:42;;;;;;;159.07;63.00;;;2.00;99.90;;;;;;5097231;28;20373;-82
2021/12/27 12:22:29;;;;;;;191.87;70.00;;;2.00;99.90;;;;;;5098268;28;20051;-82
2021/12/27 12:25:19;;;;;;;160.67;67.60;;;2.00;99.90;;;;;;5098548;28;20382;-82
2021/12/27 12:27:56;;;;;;;188.30;74.33;;;2.10;99.90;;;;;;5099080;28;20110;-83
2021/12/27 12:30:22;;;;;;;156.63;66.40;;;2.10;99.90;;;;;;5098414;28;20058;-82
2021/12/27 12:33:03;;;;;;;170.87;65.83;;;2.10;99.90;;;;;;5082010;28;20479;-83
2021/12/27 12:35:35;;;;;;;154.43;64.10;;;2.10;99.90;;;;;;5080777;28;20047;-84
2021/12/27 12:38:19;;;;;;;185.20;71.30;;;2.20;99.90;;;;;;5080967;28;20046;-83